Terminal Aerodrome Forecast
Issued by NWS Charleston, WV

Current Version | Previous Version | Graphics & Text | Print | Product List | Glossary On
Versions: 1 2 3 4 5 6 7 8 9 10 11 12 13 14 15 16 17 18 19 20 21 22 23 24 25 26 27 28 29
768
FTUS41 KRLX 262320
TAFEKN
TAF
KEKN 262320Z 2700/2724 16008G12KT 6SM SHRA VCTS SCT025 OVC045CB
      TEMPO 2700/2704 4SM SHRA OVC025
     FM270400 17005KT 6SM SHRA SCT020 BKN035
     FM270800 21003KT 5SM BR OVC020
     FM271400 23008KT P6SM BKN035=

USA.gov is the U.S. government's official web portal to all federal, state and local government web resources and services.